Time;durP1;ratioP1;P1;durP2;ratioP2;P2;SDS_P1;SDS_P2;PMS_P1;PMS_P2;Temp;Humidity;BMP_temperature;BMP_pressure;BME280_temperature;BME280_humidity;BME280_pressure;Samples;Min_cycle;Max_cycle;Signal;HPM_P1;HPM_P2
2022/07/19 00:01:24;;;;;;;;;;;;;;;38.38;21.03;100636.75;4415335;32;19989;-69
2022/07/19 00:03:50;;;;;;;;;;;;;;;38.41;21.00;100637.63;4412773;32;20490;-69
2022/07/19 00:06:16;;;;;;;;;;;;;;;38.39;21.10;100641.22;4414768;32;19965;-69
2022/07/19 00:08:41;;;;;;;;;;;;;;;38.39;21.07;100626.50;4411482;32;19953;-69
2022/07/19 00:11:07;;;;;;;;;;;;;;;38.47;21.09;100632.12;4413575;32;20022;-69
2022/07/19 00:13:32;;;;;;;;;;;;;;;38.05;21.67;100633.09;4413950;32;20004;-69
2022/07/19 00:15:58;;;;;;;;;;;;;;;38.23;21.50;100628.41;4415458;32;20005;-69
2022/07/19 00:18:24;;;;;;;;;;;;;;;38.10;21.69;100626.09;4412033;32;19993;-69
2022/07/19 00:20:49;;;;;;;;;;;;;;;38.08;21.76;100625.94;4402931;32;19950;-69
2022/07/19 00:23:15;;;;;;;;;;;;;;;38.29;21.51;100620.00;4413783;32;20013;-69
2022/07/19 00:25:40;;;;;;;;;;;;;;;38.28;21.46;100617.69;4414566;32;19963;-69
2022/07/19 00:28:05;;;;;;;;;;;;;;;38.30;21.48;100615.63;4413824;32;19965;-69
2022/07/19 00:30:32;;;;;;;;;;;;;;;38.27;21.51;100613.97;4412897;32;20289;-69
2022/07/19 00:32:58;;;;;;;;;;;;;;;38.22;21.62;100615.09;4414155;32;19957;-69
2022/07/19 00:35:23;;;;;;;;;;;;;;;38.39;21.42;100614.75;4413174;32;19953;-71
2022/07/19 00:37:48;;;;;;;;;;;;;;;38.47;21.36;100611.56;4414722;32;20001;-70
2022/07/19 00:40:15;;;;;;;;;;;;;;;38.42;21.38;100607.59;4415499;32;20390;-69
2022/07/19 00:42:41;;;;;;;;;;;;;;;38.40;21.36;100607.44;4403787;32;20009;-69
2022/07/19 00:45:06;;;;;;;;;;;;;;;38.46;21.28;100601.97;4416460;32;19993;-69
2022/07/19 00:47:32;;;;;;;;;;;;;;;38.35;21.47;100604.91;4416851;32;19953;-69
2022/07/19 00:49:58;;;;;;;;;;;;;;;38.44;21.37;100604.78;4411858;32;20416;-69
2022/07/19 00:52:26;;;;;;;;;;;;;;;38.38;21.46;100603.63;4413880;32;19950;-69
2022/07/19 00:54:53;;;;;;;;;;;;;;;38.30;21.56;100600.94;4399268;32;20013;-69
2022/07/19 00:57:19;;;;;;;;;;;;;;;38.40;21.49;100597.88;4416234;32;19965;-69
2022/07/19 00:59:46;;;;;;;;;;;;;;;38.38;21.60;100598.53;4415320;32;20388;-69
2022/07/19 01:02:13;;;;;;;;;;;;;;;38.22;21.86;100603.34;4411047;32;20004;-69
2022/07/19 01:04:38;;;;;;;;;;;;;;;38.02;22.09;100604.19;4411077;32;19964;-68
2022/07/19 01:07:04;;;;;;;;;;;;;;;37.97;22.13;100600.22;4414163;32;20453;-68
2022/07/19 01:09:30;;;;;;;;;;;;;;;37.97;22.04;100595.12;4415113;32;19953;-69
2022/07/19 01:11:56;;;;;;;;;;;;;;;38.01;22.09;100588.75;4410451;32;20065;-69
2022/07/19 01:14:21;;;;;;;;;;;;;;;38.09;22.07;100595.16;4414561;32;20342;-69
2022/07/19 01:16:47;;;;;;;;;;;;;;;38.04;22.15;100583.75;4414329;32;20029;-69
2022/07/19 01:19:13;;;;;;;;;;;;;;;37.94;22.29;100592.66;4412262;32;19969;-69
2022/07/19 01:21:39;;;;;;;;;;;;;;;37.98;22.17;100584.12;4416844;32;19993;-69
2022/07/19 01:24:05;;;;;;;;;;;;;;;37.99;22.18;100582.72;4416462;32;20402;-69
2022/07/19 01:26:31;;;;;;;;;;;;;;;38.04;22.12;100580.81;4415527;32;21055;-69
2022/07/19 01:28:56;;;;;;;;;;;;;;;37.89;22.30;100582.81;4412849;32;20373;-69
2022/07/19 01:31:22;;;;;;;;;;;;;;;38.12;22.06;100578.44;4416999;32;19996;-69
2022/07/19 01:33:47;;;;;;;;;;;;;;;38.16;22.13;100576.50;4415333;32;20289;-69
2022/07/19 01:36:13;;;;;;;;;;;;;;;38.02;22.30;100575.56;4415540;32;19945;-69
2022/07/19 01:38:39;;;;;;;;;;;;;;;38.22;22.07;100576.16;4415524;32;19996;-70
2022/07/19 01:41:05;;;;;;;;;;;;;;;38.19;22.02;100572.28;4417163;32;20503;-68
2022/07/19 01:43:31;;;;;;;;;;;;;;;38.22;21.99;100576.16;4418595;32;19965;-69
2022/07/19 01:45:57;;;;;;;;;;;;;;;38.36;21.84;100571.91;4416538;32;20004;-69
2022/07/19 01:48:23;;;;;;;;;;;;;;;38.36;21.83;100574.84;4416316;32;19993;-69
2022/07/19 01:50:49;;;;;;;;;;;;;;;38.26;21.96;100568.34;4414382;32;20012;-69
2022/07/19 01:53:14;;;;;;;;;;;;;;;38.17;22.05;100575.13;4415356;32;20038;-68
2022/07/19 01:55:40;;;;;;;;;;;;;;;38.31;21.88;100569.37;4415306;32;20005;-68
2022/07/19 01:58:05;;;;;;;;;;;;;;;38.18;22.03;100567.03;4414309;32;19983;-69
2022/07/19 02:00:31;;;;;;;;;;;;;;;38.16;21.99;100555.94;4418723;32;20000;-68
2022/07/19 02:02:57;;;;;;;;;;;;;;;38.10;22.05;100558.50;4416801;32;19996;-68
2022/07/19 02:05:23;;;;;;;;;;;;;;;38.13;21.98;100548.41;4416088;32;20374;-69
2022/07/19 02:07:49;;;;;;;;;;;;;;;38.13;21.96;100557.22;4414895;32;19988;-68
2022/07/19 02:10:14;;;;;;;;;;;;;;;38.10;21.99;100543.81;4417360;32;20034;-68
2022/07/19 02:12:40;;;;;;;;;;;;;;;38.06;22.04;100546.44;4413366;32;19975;-68
2022/07/19 02:15:07;;;;;;;;;;;;;;;38.04;22.08;100552.22;4415712;32;19958;-68
2022/07/19 02:17:32;;;;;;;;;;;;;;;37.97;22.17;100544.38;4416701;32;19975;-69
2022/07/19 02:19:58;;;;;;;;;;;;;;;37.98;22.13;100543.75;4417134;32;19972;-69
2022/07/19 02:22:23;;;;;;;;;;;;;;;37.93;22.22;100535.31;4416146;32;19993;-69
2022/07/19 02:24:49;;;;;;;;;;;;;;;37.80;22.36;100542.56;4415861;32;19989;-69
2022/07/19 02:27:14;;;;;;;;;;;;;;;37.84;22.23;100530.31;4413353;32;20016;-69
2022/07/19 02:29:40;;;;;;;;;;;;;;;37.77;22.31;100531.34;4416782;32;19961;-69
2022/07/19 02:32:06;;;;;;;;;;;;;;;37.68;22.38;100529.28;4415584;32;19990;-69
2022/07/19 02:34:31;;;;;;;;;;;;;;;37.78;22.22;100532.88;4416159;32;20004;-69
2022/07/19 02:36:57;;;;;;;;;;;;;;;37.85;22.02;100538.50;4412203;32;19994;-69
2022/07/19 02:39:23;;;;;;;;;;;;;;;37.77;22.09;100532.09;4414037;32;20005;-69
2022/07/19 02:41:48;;;;;;;;;;;;;;;37.77;22.43;100534.28;4414046;32;19957;-69
2022/07/19 02:44:14;;;;;;;;;;;;;;;37.75;22.46;100537.84;4415473;32;19986;-69
2022/07/19 02:46:39;;;;;;;;;;;;;;;37.75;22.24;100522.38;4415227;32;20363;-69
2022/07/19 02:49:05;;;;;;;;;;;;;;;37.76;22.20;100539.38;4414445;32;19984;-69
2022/07/19 02:51:31;;;;;;;;;;;;;;;37.73;22.31;100531.09;4416950;32;20313;-69
2022/07/19 02:53:56;;;;;;;;;;;;;;;37.77;22.33;100531.34;4415756;32;19989;-69
2022/07/19 02:56:22;;;;;;;;;;;;;;;37.69;22.40;100519.06;4415885;32;19957;-69
2022/07/19 02:58:47;;;;;;;;;;;;;;;37.73;22.30;100519.34;4413770;32;20394;-69
2022/07/19 03:01:12;;;;;;;;;;;;;;;37.66;22.21;100514.44;4414583;32;20565;-69
2022/07/19 03:03:53;;;;;;;;;;;;;;;37.47;22.21;100506.59;4416476;32;19961;-69
2022/07/19 03:06:19;;;;;;;;;;;;;;;37.47;22.22;100506.59;4415133;32;20022;-69
2022/07/19 03:08:45;;;;;;;;;;;;;;;37.54;22.23;100507.75;4412873;32;20012;-69
2022/07/19 03:11:10;;;;;;;;;;;;;;;37.37;22.42;100502.25;4414101;32;19996;-68
2022/07/19 03:13:36;;;;;;;;;;;;;;;37.40;22.28;100495.09;4414799;32;19956;-68
2022/07/19 03:16:02;;;;;;;;;;;;;;;37.28;22.41;100500.94;4417095;32;20000;-68
2022/07/19 03:18:27;;;;;;;;;;;;;;;37.15;22.48;100500.72;4417689;32;20018;-69
2022/07/19 03:20:55;;;;;;;;;;;;;;;37.23;22.31;100501.28;4414487;32;20001;-68
2022/07/19 03:23:21;;;;;;;;;;;;;;;37.24;22.14;100497.72;4414839;32;19962;-69
2022/07/19 03:25:46;;;;;;;;;;;;;;;37.16;22.10;100499.31;4413380;32;20311;-69
2022/07/19 03:28:12;;;;;;;;;;;;;;;37.12;22.16;100493.19;4414832;32;19997;-68
2022/07/19 03:30:37;;;;;;;;;;;;;;;37.07;22.14;100492.16;4414937;32;20327;-68
2022/07/19 03:33:03;;;;;;;;;;;;;;;37.05;22.11;100494.94;4414167;32;19972;-68
2022/07/19 03:35:28;;;;;;;;;;;;;;;37.01;22.20;100497.63;4414171;32;20017;-68
2022/07/19 03:37:54;;;;;;;;;;;;;;;36.89;22.10;100496.78;4414454;32;20458;-68
2022/07/19 03:40:19;;;;;;;;;;;;;;;36.85;22.14;100489.88;4414464;32;19976;-68
2022/07/19 03:42:45;;;;;;;;;;;;;;;36.82;22.01;100494.84;4413557;32;20664;-68
2022/07/19 03:45:10;;;;;;;;;;;;;;;36.84;21.81;100492.03;4412622;32;19995;-68
2022/07/19 03:47:36;;;;;;;;;;;;;;;36.80;21.70;100493.91;4415865;32;20374;-68
2022/07/19 03:50:02;;;;;;;;;;;;;;;36.75;21.70;100498.00;4412834;32;19989;-68
2022/07/19 03:52:28;;;;;;;;;;;;;;;36.79;21.58;100486.53;4414209;32;19968;-68
2022/07/19 03:54:54;;;;;;;;;;;;;;;36.70;21.32;100485.19;4414686;32;20001;-68
2022/07/19 03:57:20;;;;;;;;;;;;;;;36.79;21.26;100486.53;4413218;32;20001;-68
2022/07/19 03:59:45;;;;;;;;;;;;;;;36.77;21.30;100486.38;4415499;32;20327;-68
2022/07/19 04:02:10;;;;;;;;;;;;;;;36.82;21.14;100477.25;4414594;32;20377;-69
2022/07/19 04:04:38;;;;;;;;;;;;;;;36.91;21.09;100478.56;4413208;32;20299;-69
2022/07/19 04:07:04;;;;;;;;;;;;;;;36.93;21.00;100479.44;4414244;32;20280;-69
2022/07/19 04:09:29;;;;;;;;;;;;;;;37.11;21.03;100468.94;4413194;32;19973;-68
2022/07/19 04:11:55;;;;;;;;;;;;;;;37.16;21.03;100467.03;4414149;32;20028;-69
2022/07/19 04:14:20;;;;;;;;;;;;;;;37.30;20.88;100477.56;4413378;32;20249;-69
2022/07/19 04:16:46;;;;;;;;;;;;;;;37.37;20.83;100479.53;4416054;32;19961;-69
2022/07/19 04:19:11;;;;;;;;;;;;;;;37.51;20.50;100468.69;4414430;32;20004;-69
2022/07/19 04:21:37;;;;;;;;;;;;;;;37.53;20.62;100471.00;4414493;32;20359;-69
2022/07/19 04:24:02;;;;;;;;;;;;;;;37.60;20.44;100464.88;4414941;32;20031;-69
2022/07/19 04:26:28;;;;;;;;;;;;;;;37.77;20.28;100469.66;4413688;32;19953;-69
2022/07/19 04:28:53;;;;;;;;;;;;;;;37.58;20.34;100469.88;4415633;32;19990;-69
2022/07/19 04:31:19;;;;;;;;;;;;;;;37.80;20.05;100474.25;4415608;32;20009;-69
2022/07/19 04:33:44;;;;;;;;;;;;;;;37.79;19.69;100470.53;4412844;32;19981;-69
2022/07/19 04:36:09;;;;;;;;;;;;;;;37.85;19.70;100465.06;4414148;32;20001;-69
2022/07/19 04:38:35;;;;;;;;;;;;;;;38.00;19.40;100463.78;4412977;32;20013;-69
2022/07/19 04:41:02;;;;;;;;;;;;;;;37.94;19.55;100467.09;4412246;32;19997;-69
2022/07/19 04:43:28;;;;;;;;;;;;;;;37.87;19.59;100467.34;4414432;32;19989;-69
2022/07/19 04:45:53;;;;;;;;;;;;;;;37.97;19.37;100468.00;4414737;32;19953;-69
2022/07/19 04:48:19;;;;;;;;;;;;;;;37.97;18.85;100468.75;4412853;32;20008;-69
2022/07/19 04:50:44;;;;;;;;;;;;;;;37.98;18.73;100463.66;4412441;32;19990;-69
2022/07/19 04:53:09;;;;;;;;;;;;;;;38.05;18.41;100468.50;4414435;32;19992;-69
2022/07/19 04:55:36;;;;;;;;;;;;;;;38.00;18.55;100457.16;4417146;32;20070;-69
2022/07/19 04:58:02;;;;;;;;;;;;;;;38.01;18.34;100452.78;4413279;32;20027;-69
2022/07/19 05:00:27;;;;;;;;;;;;;;;37.92;18.42;100448.59;4416755;32;20078;-69
2022/07/19 05:02:53;;;;;;;;;;;;;;;37.85;18.51;100455.47;4415355;32;20018;-69
2022/07/19 05:05:19;;;;;;;;;;;;;;;37.79;18.58;100455.06;4416738;32;19993;-69
2022/07/19 05:07:44;;;;;;;;;;;;;;;37.84;18.55;100448.06;4415653;32;19965;-69
2022/07/19 05:10:10;;;;;;;;;;;;;;;37.83;18.57;100456.09;4414337;32;19991;-69
2022/07/19 05:12:35;;;;;;;;;;;;;;;37.80;18.62;100456.63;4415878;32;20005;-69
2022/07/19 05:15:01;;;;;;;;;;;;;;;37.87;18.55;100453.44;4414877;32;19988;-69
2022/07/19 05:17:26;;;;;;;;;;;;;;;37.94;18.52;100457.50;4417639;32;20003;-69
2022/07/19 05:19:52;;;;;;;;;;;;;;;38.01;18.42;100447.69;4417595;32;20353;-69
2022/07/19 05:22:18;;;;;;;;;;;;;;;37.99;18.27;100444.63;4417300;32;19953;-69
2022/07/19 05:24:43;;;;;;;;;;;;;;;38.15;18.18;100444.88;4415313;32;20117;-69
2022/07/19 05:27:09;;;;;;;;;;;;;;;38.11;18.28;100436.59;4416119;32;20407;-69
2022/07/19 05:29:35;;;;;;;;;;;;;;;37.94;18.45;100436.94;4414839;32;20027;-69
2022/07/19 05:32:00;;;;;;;;;;;;;;;38.23;18.34;100443.22;4418476;32;20335;-69
2022/07/19 05:34:26;;;;;;;;;;;;;;;38.27;18.37;100439.75;4413094;32;20042;-69
2022/07/19 05:36:51;;;;;;;;;;;;;;;38.30;18.39;100433.34;4416365;32;19980;-69
2022/07/19 05:39:16;;;;;;;;;;;;;;;38.29;18.54;100431.84;4414269;32;20062;-69
2022/07/19 05:41:43;;;;;;;;;;;;;;;38.48;18.45;100431.53;4417485;32;20385;-69
2022/07/19 05:44:09;;;;;;;;;;;;;;;38.59;18.29;100433.69;4416660;32;19972;-69
2022/07/19 05:46:40;;;;;;;;;;;;;;;38.75;18.24;100436.84;4416710;32;21023;-69
2022/07/19 05:49:06;;;;;;;;;;;;;;;38.73;18.33;100437.47;4414875;32;20046;-69
2022/07/19 05:51:32;;;;;;;;;;;;;;;38.72;18.38;100438.91;4416069;32;20004;-69
2022/07/19 05:53:57;;;;;;;;;;;;;;;38.87;18.32;100432.41;4414673;32;20420;-69
2022/07/19 05:56:23;;;;;;;;;;;;;;;38.95;18.31;100432.91;4415795;32;20039;-69
2022/07/19 05:58:49;;;;;;;;;;;;;;;39.10;18.19;100431.56;4416288;32;20367;-69
2022/07/19 06:01:18;;;;;;;;;;;;;;;39.22;18.00;100432.28;4413882;32;19953;-69
2022/07/19 06:03:43;;;;;;;;;;;;;;;39.25;17.97;100440.59;4412982;32;19994;-69
2022/07/19 06:06:09;;;;;;;;;;;;;;;39.34;17.82;100435.91;4414529;32;20107;-69
2022/07/19 06:08:35;;;;;;;;;;;;;;;39.36;18.02;100430.91;4412897;32;20489;-69
2022/07/19 06:11:01;;;;;;;;;;;;;;;39.41;18.17;100432.69;4415464;32;19968;-69
2022/07/19 06:13:26;;;;;;;;;;;;;;;39.58;17.93;100422.59;4416051;32;19995;-69
2022/07/19 06:15:52;;;;;;;;;;;;;;;39.64;17.87;100426.63;4415666;32;20360;-69
2022/07/19 06:18:18;;;;;;;;;;;;;;;39.68;17.82;100434.94;4415588;32;19989;-69
2022/07/19 06:20:43;;;;;;;;;;;;;;;39.82;17.59;100432.00;4414871;32;20000;-69
2022/07/19 06:23:09;;;;;;;;;;;;;;;39.88;17.54;100420.59;4416688;32;20364;-69
2022/07/19 06:25:35;;;;;;;;;;;;;;;40.03;17.36;100428.78;4415569;32;20000;-69
2022/07/19 06:28:00;;;;;;;;;;;;;;;40.20;17.33;100428.22;4414799;32;20000;-69
2022/07/19 06:30:26;;;;;;;;;;;;;;;40.26;17.43;100438.19;4418582;32;20339;-69
2022/07/19 06:32:51;;;;;;;;;;;;;;;40.26;17.56;100441.13;4411797;32;20325;-69
2022/07/19 06:35:17;;;;;;;;;;;;;;;40.26;17.84;100438.19;4414158;32;20013;-69
2022/07/19 06:37:42;;;;;;;;;;;;;;;40.39;17.81;100448.41;4411982;32;19945;-69
2022/07/19 06:40:08;;;;;;;;;;;;;;;40.54;17.85;100442.62;4411981;32;20383;-69
2022/07/19 06:42:34;;;;;;;;;;;;;;;40.71;17.88;100442.03;4405035;32;20015;-69
2022/07/19 06:45:01;;;;;;;;;;;;;;;40.85;18.25;100444.97;4402867;32;20345;-69
2022/07/19 06:47:28;;;;;;;;;;;;;;;41.00;18.31;100447.22;4402843;32;19990;-69
2022/07/19 06:49:55;;;;;;;;;;;;;;;41.17;18.16;100440.72;4407912;32;19990;-69
2022/07/19 06:52:20;;;;;;;;;;;;;;;41.23;18.26;100446.94;4411163;32;19989;-69
2022/07/19 06:54:46;;;;;;;;;;;;;;;41.42;17.84;100441.25;4412882;32;20305;-69
2022/07/19 06:57:12;;;;;;;;;;;;;;;41.67;17.65;100434.34;4405175;32;20427;-69
2022/07/19 06:59:38;;;;;;;;;;;;;;;41.84;17.51;100433.66;4408331;32;20069;-69
2022/07/19 07:02:04;;;;;;;;;;;;;;;41.93;17.33;100435.56;4406064;32;20000;-69
2022/07/19 07:04:29;;;;;;;;;;;;;;;42.05;17.38;100429.47;4410627;32;19989;-69
2022/07/19 07:06:55;;;;;;;;;;;;;;;42.31;16.92;100428.50;4402281;32;20162;-69
2022/07/19 07:09:20;;;;;;;;;;;;;;;42.21;16.41;100428.00;4409008;32;21073;-69
2022/07/19 07:11:46;;;;;;;;;;;;;;;42.35;15.95;100425.72;4403928;32;19972;-69
2022/07/19 07:14:11;;;;;;;;;;;;;;;42.34;15.74;100421.25;4404607;32;20565;-69
2022/07/19 07:16:37;;;;;;;;;;;;;;;42.58;15.25;100403.78;4406045;32;20387;-69
2022/07/19 07:19:03;;;;;;;;;;;;;;;42.73;15.13;100412.59;4398873;32;20458;-69
2022/07/19 07:21:29;;;;;;;;;;;;;;;42.86;15.13;100399.09;4407873;32;19996;-69
2022/07/19 07:23:55;;;;;;;;;;;;;;;43.02;14.55;100399.75;4400206;32;20008;-69
2022/07/19 07:26:20;;;;;;;;;;;;;;;42.98;14.27;100399.59;4409363;32;20354;-69
2022/07/19 07:28:46;;;;;;;;;;;;;;;43.15;14.04;100409.94;4402843;32;20008;-69
2022/07/19 07:31:11;;;;;;;;;;;;;;;43.04;13.98;100394.66;4406696;32;20037;-69
2022/07/19 07:33:37;;;;;;;;;;;;;;;43.23;13.96;100402.13;4406457;32;20296;-69
2022/07/19 07:36:02;;;;;;;;;;;;;;;43.23;14.01;100401.34;4411193;32;19964;-69
2022/07/19 07:38:28;;;;;;;;;;;;;;;43.50;13.84;100406.94;4402400;32;19997;-69
2022/07/19 07:40:53;;;;;;;;;;;;;;;43.61;13.90;100417.75;4403761;32;20793;-69
2022/07/19 07:43:19;;;;;;;;;;;;;;;43.83;13.90;100419.34;4406669;32;20201;-70
2022/07/19 07:45:44;;;;;;;;;;;;;;;44.04;13.77;100412.00;4405571;32;20331;-69
2022/07/19 07:48:10;;;;;;;;;;;;;;;44.25;13.71;100423.19;4405374;32;20019;-69
2022/07/19 07:50:35;;;;;;;;;;;;;;;44.15;13.94;100410.94;4402973;32;20017;-69
2022/07/19 07:53:01;;;;;;;;;;;;;;;44.21;14.02;100408.97;4402547;32;19958;-70
2022/07/19 07:55:26;;;;;;;;;;;;;;;43.98;14.08;100403.63;4403307;32;20011;-69
2022/07/19 07:57:51;;;;;;;;;;;;;;;44.32;13.90;100407.88;4406893;32;20502;-69
2022/07/19 08:00:18;;;;;;;;;;;;;;;44.45;13.77;100403.16;4407438;32;19997;-69
2022/07/19 08:02:45;;;;;;;;;;;;;;;44.46;13.37;100402.47;4408935;32;20354;-69
2022/07/19 08:05:11;;;;;;;;;;;;;;;44.78;13.37;100396.91;4392927;32;20027;-69
2022/07/19 08:07:37;;;;;;;;;;;;;;;44.95;13.45;100390.06;4407928;32;20393;-69
2022/07/19 08:10:04;;;;;;;;;;;;;;;45.30;13.33;100383.78;4409260;32;20017;-69
2022/07/19 08:12:29;;;;;;;;;;;;;;;45.19;13.13;100387.91;4406985;32;19966;-69
2022/07/19 08:14:55;;;;;;;;;;;;;;;45.46;12.78;100383.56;4409397;32;20012;-69
2022/07/19 08:17:21;;;;;;;;;;;;;;;45.34;12.10;100398.03;4407633;32;20034;-69
2022/07/19 08:19:46;;;;;;;;;;;;;;;45.53;11.99;100397.16;4412436;32;19965;-69
2022/07/19 08:22:15;;;;;;;;;;;;;;;45.44;12.29;100402.09;4408747;32;19965;-70
2022/07/19 08:24:41;;;;;;;;;;;;;;;45.85;12.26;100401.88;4405303;32;20042;-69
2022/07/19 08:27:07;;;;;;;;;;;;;;;46.09;12.12;100395.88;4407871;32;19997;-70
2022/07/19 08:29:33;;;;;;;;;;;;;;;46.32;11.95;100389.87;4410078;32;19973;-69
2022/07/19 08:31:58;;;;;;;;;;;;;;;46.71;11.79;100391.66;4396171;32;19993;-70
2022/07/19 08:34:24;;;;;;;;;;;;;;;46.50;11.94;100398.59;4409777;32;20675;-69
2022/07/19 08:36:49;;;;;;;;;;;;;;;46.37;11.87;100394.47;4408048;32;20414;-70
2022/07/19 08:39:15;;;;;;;;;;;;;;;46.98;11.51;100390.13;4410303;32;20016;-70
2022/07/19 08:41:42;;;;;;;;;;;;;;;46.97;11.49;100392.38;4411002;32;19988;-70
2022/07/19 08:44:08;;;;;;;;;;;;;;;47.37;11.28;100389.59;4405386;32;20128;-69
2022/07/19 08:46:34;;;;;;;;;;;;;;;47.54;10.99;100388.50;4397907;32;20009;-69
2022/07/19 08:48:59;;;;;;;;;;;;;;;47.67;11.05;100385.09;4406485;32;19997;-69
2022/07/19 08:51:25;;;;;;;;;;;;;;;47.50;11.26;100377.25;4408696;32;19997;-71
2022/07/19 08:53:51;;;;;;;;;;;;;;;48.01;10.83;100376.91;4408520;32;20288;-69
2022/07/19 08:59:03;;;;;;;;;;;;;;;48.35;10.24;100385.78;4407359;32;20023;-69
2022/07/19 09:01:29;;;;;;;;;;;;;;;48.36;10.25;100389.53;4409686;32;20013;-69
2022/07/19 09:04:03;;;;;;;;;;;;;;;48.52;10.13;100371.91;4406217;32;19993;-69
2022/07/19 09:06:36;;;;;;;;;;;;;;;48.47;10.04;100373.28;4409700;32;19993;-69
2022/07/19 09:09:03;;;;;;;;;;;;;;;48.53;9.76;100358.47;4410250;32;20000;-69
2022/07/19 09:11:33;;;;;;;;;;;;;;;48.84;9.61;100364.28;4407960;32;20032;-69
2022/07/19 09:14:03;;;;;;;;;;;;;;;48.47;9.43;100362.13;4408479;32;20561;-69
2022/07/19 09:16:47;;;;;;;;;;;;;;;48.57;9.42;100365.28;4407361;32;20038;-69
2022/07/19 09:19:12;;;;;;;;;;;;;;;48.39;9.71;100364.22;4409365;32;19999;-70
2022/07/19 09:21:58;;;;;;;;;;;;;;;48.07;9.86;100356.09;4408713;32;20415;-69
2022/07/19 09:24:24;;;;;;;;;;;;;;;48.61;9.67;100347.44;4403310;32;19965;-69
2022/07/19 09:26:54;;;;;;;;;;;;;;;49.11;9.45;100348.28;4405447;32;20000;-69
2022/07/19 09:29:20;;;;;;;;;;;;;;;49.12;9.37;100346.81;4404646;32;20042;-69
2022/07/19 09:32:06;;;;;;;;;;;;;;;48.70;9.62;100339.41;4403708;32;19972;-69
2022/07/19 09:34:33;;;;;;;;;;;;;;;48.78;9.68;100331.31;4404492;32;20005;-69
2022/07/19 09:37:15;;;;;;;;;;;;;;;48.91;9.64;100333.00;4403941;32;20841;-69
2022/07/19 09:39:45;;;;;;;;;;;;;;;49.34;9.25;100325.44;4402439;32;20005;-68
2022/07/19 09:42:11;;;;;;;;;;;;;;;49.62;9.13;100329.56;4403632;32;20351;-69
2022/07/19 09:44:37;;;;;;;;;;;;;;;49.89;8.97;100321.69;4404024;32;19989;-69
2022/07/19 09:47:02;;;;;;;;;;;;;;;49.63;9.02;100325.13;4406695;32;20081;-69
2022/07/19 09:49:29;;;;;;;;;;;;;;;49.25;9.07;100320.81;4402323;32;20012;-70
2022/07/19 09:51:55;;;;;;;;;;;;;;;48.92;8.98;100313.59;4404903;32;20004;-70
2022/07/19 09:54:22;;;;;;;;;;;;;;;48.69;8.85;100320.72;4406286;32;20605;-70
2022/07/19 09:56:50;;;;;;;;;;;;;;;48.43;8.80;100311.25;4408048;32;21152;-70
2022/07/19 09:59:15;;;;;;;;;;;;;;;48.83;8.74;100305.97;4408774;32;20391;-70
2022/07/19 10:01:42;;;;;;;;;;;;;;;48.15;8.80;100304.75;4405442;32;19975;-70
2022/07/19 10:04:09;;;;;;;;;;;;;;;47.81;9.01;100313.81;4407460;32;20052;-70
2022/07/19 10:06:34;;;;;;;;;;;;;;;48.62;8.73;100303.41;4405862;32;20456;-70
2022/07/19 10:09:02;;;;;;;;;;;;;;;49.00;8.64;100295.06;4407974;32;20687;-70
2022/07/19 10:11:29;;;;;;;;;;;;;;;49.40;8.64;100289.66;4409314;32;19992;-70
2022/07/19 10:13:55;;;;;;;;;;;;;;;49.85;8.51;100283.50;4410126;32;19993;-70
2022/07/19 10:16:24;;;;;;;;;;;;;;;50.13;8.54;100289.03;4408848;32;20040;-70
2022/07/19 10:18:57;;;;;;;;;;;;;;;50.38;8.41;100278.81;4407323;32;19989;-69
2022/07/19 10:21:23;;;;;;;;;;;;;;;50.13;8.29;100294.25;4408830;32;19971;-70
2022/07/19 10:23:51;;;;;;;;;;;;;;;50.31;8.18;100286.25;4403599;32;20000;-69
2022/07/19 10:26:36;;;;;;;;;;;;;;;50.00;8.21;100269.47;4411008;32;20011;-68
2022/07/19 10:29:11;;;;;;;;;;;;;;;50.58;8.12;100269.25;4409980;32;19993;-70
2022/07/19 10:31:37;;;;;;;;;;;;;;;51.49;7.67;100272.06;4410644;32;20062;-68
2022/07/19 10:50:14;;;;;;;;;;;;;;;52.40;6.98;100267.03;3940632;32;15726052;-70
2022/07/19 10:52:42;;;;;;;;;;;;;;;52.40;6.98;100267.03;4416177;32;19984;-70
2022/07/19 10:55:24;;;;;;;;;;;;;;;52.61;7.09;100259.53;4416689;32;20009;-70
2022/07/19 10:57:51;;;;;;;;;;;;;;;52.78;6.98;100267.00;4417970;32;20134;-69
2022/07/19 11:00:19;;;;;;;;;;;;;;;52.59;6.81;100261.75;4417095;32;20034;-69
2022/07/19 11:02:45;;;;;;;;;;;;;;;52.12;7.08;100251.25;4419660;32;20000;-70
2022/07/19 11:05:27;;;;;;;;;;;;;;;52.14;7.09;100251.25;4416847;32;19997;-71
2022/07/19 11:07:54;;;;;;;;;;;;;;;53.06;6.79;100257.94;4419249;32;19997;-69
2022/07/19 11:10:25;;;;;;;;;;;;;;;53.18;6.62;100257.91;4418431;32;19995;-68
2022/07/19 11:12:51;;;;;;;;;;;;;;;52.86;6.80;100248.97;4420216;32;19993;-68
2022/07/19 11:15:16;;;;;;;;;;;;;;;53.09;6.74;100250.41;4421715;32;19980;-69
2022/07/19 11:18:02;;;;;;;;;;;;;;;53.37;6.73;100240.56;4419173;32;20377;-69
2022/07/19 11:20:32;;;;;;;;;;;;;;;53.08;6.86;100239.16;4420511;32;19953;-69
2022/07/19 11:22:59;;;;;;;;;;;;;;;53.31;6.54;100233.81;4420773;32;19997;-69
2022/07/19 11:28:00;;;;;;;;;;;;;;;52.94;6.57;100227.91;3944199;32;15724535;-70
2022/07/19 11:30:28;;;;;;;;;;;;;;;52.94;6.57;100227.91;4418446;32;20304;-69
2022/07/19 11:32:57;;;;;;;;;;;;;;;53.01;6.61;100222.63;4417644;32;19996;-70
2022/07/19 11:35:24;;;;;;;;;;;;;;;52.87;6.67;100214.38;4419544;32;20014;-70
2022/07/19 11:37:53;;;;;;;;;;;;;;;52.66;6.74;100212.94;4417518;32;20334;-71
2022/07/19 11:40:19;;;;;;;;;;;;;;;52.84;6.57;100209.13;4420501;32;19953;-71
2022/07/19 11:42:47;;;;;;;;;;;;;;;52.17;6.84;100211.44;4417669;32;20635;-70
2022/07/19 11:45:28;;;;;;;;;;;;;;;52.29;6.88;100192.72;4416818;32;19990;-69
2022/07/19 11:47:55;;;;;;;;;;;;;;;52.48;6.72;100197.19;4419499;32;20026;-69
2022/07/19 11:50:24;;;;;;;;;;;;;;;52.46;6.81;100194.19;4417094;32;20263;-69
2022/07/19 11:52:51;;;;;;;;;;;;;;;52.45;6.75;100198.69;4419896;32;19973;-70
2022/07/19 11:55:19;;;;;;;;;;;;;;;53.40;6.33;100190.16;4411384;32;20017;-70
2022/07/19 11:57:45;;;;;;;;;;;;;;;53.72;6.17;100180.91;4415820;32;19969;-70
2022/07/19 12:00:11;;;;;;;;;;;;;;;53.74;6.13;100180.91;4411782;32;19980;-70
2022/07/19 12:02:53;;;;;;;;;;;;;;;53.77;6.07;100180.16;4417082;32;19989;-70
2022/07/19 12:05:19;;;;;;;;;;;;;;;54.36;5.94;100171.38;4418716;32;20005;-68
2022/07/19 12:07:46;;;;;;;;;;;;;;;54.57;5.64;100164.41;4412441;32;19977;-69
2022/07/19 12:10:31;;;;;;;;;;;;;;;55.23;5.53;100165.13;4415968;32;20005;-69
2022/07/19 12:12:57;;;;;;;;;;;;;;;54.99;5.59;100169.19;4417218;32;20009;-68
2022/07/19 12:15:22;;;;;;;;;;;;;;;54.29;5.94;100157.91;4415963;32;20000;-69
2022/07/19 12:17:56;;;;;;;;;;;;;;;55.16;5.72;100152.37;4414733;32;20275;-70
2022/07/19 12:20:22;;;;;;;;;;;;;;;55.37;5.54;100153.59;4415371;32;20039;-69
2022/07/19 12:22:47;;;;;;;;;;;;;;;55.55;5.38;100147.31;4415205;32;19954;-69
2022/07/19 12:25:12;;;;;;;;;;;;;;;55.91;5.37;100143.69;4413894;32;19985;-69
2022/07/19 12:27:40;;;;;;;;;;;;;;;55.51;5.50;100144.34;4411077;32;20012;-69
2022/07/19 12:30:06;;;;;;;;;;;;;;;55.33;5.52;100128.78;4413445;32;19997;-69
2022/07/19 12:32:36;;;;;;;;;;;;;;;54.90;5.74;100119.56;4415929;32;19999;-69
2022/07/19 12:35:05;;;;;;;;;;;;;;;54.21;5.88;100119.56;4418215;32;20439;-69
2022/07/19 12:37:32;;;;;;;;;;;;;;;53.39;6.15;100117.19;4415079;32;19965;-70
2022/07/19 12:40:18;;;;;;;;;;;;;;;53.64;6.08;100106.47;4404058;32;20005;-70
2022/07/19 12:42:45;;;;;;;;;;;;;;;54.38;5.89;100108.09;4402856;32;19985;-70
2022/07/19 12:45:12;;;;;;;;;;;;;;;54.28;5.95;100105.16;4403855;32;19984;-70
2022/07/19 12:47:37;;;;;;;;;;;;;;;54.41;5.91;100101.25;4402587;32;20642;-70
2022/07/19 12:50:04;;;;;;;;;;;;;;;54.33;5.83;100106.62;4404486;32;20940;-70
2022/07/19 12:52:29;;;;;;;;;;;;;;;54.68;5.74;100104.72;4404343;32;20698;-70
2022/07/19 12:54:55;;;;;;;;;;;;;;;55.21;5.66;100104.81;4404566;32;19966;-70
2022/07/19 12:57:21;;;;;;;;;;;;;;;54.83;5.79;100103.81;4403830;32;19993;-70
2022/07/19 12:59:47;;;;;;;;;;;;;;;54.41;5.96;100097.50;4403907;32;20055;-70